Harrison Township, Michigan
Current Conditions -  °F | °C
As of 5:58 AM on Thursday 23 Oct 2014 (Local Time) from KMTC Reporting Station
Clear Clear  
Wind Chill:   Ceiling: Unl
Heat Index:   Visibility: 10mi
Dew Point:   Wind: 6mph
Humidity: 99%   Direction: 320°NW
Pressure: 30.23"   Gusts: NA
Location:  42.58°N, 82.83°W
Report Text: KMTC 230958Z AUTO 32005KT 10SM CLR 03/03 A3023 RMK AO2 SLP244 T00270026 $
Loading
Personal Weather Stations






























Interactive Weather Map
Tropical Storm Tracking
New forecast layout! Learn more

10-Day Weather Forecast

Advertisements
Track Severe Weather on mobile